Rejestracja

Wszystkie dane podawane są w czasie UTC za wyjątkiem miejsc gdzie jest jednoznacznie podane, że jest inaczej. Dane podawane w serwisie mają charakter informacyjny!!!
Informacje w sprawie dostępu do serwisu pod numerem tel. +48 261-828-138
Informacja dla żołnierzy i pracowników wojska: Prosimy o niezwłoczną zmianę adresu e-mail w profilu użytkownika na pocztę w domenie @ron.mil.pl

Aktualna Pogoda
 
Pogoda w Polsce
5°C Szczecin 11°C Suwałki 5°C Warszawa 7°C Poznan
4°C Opole 4°C Kraków 7°C Rzeszów
Więcej miast w Polsce

Pogoda w Europie
19°C Paryz 18°C Bruksela 8°C Oslo 9°C Praga
6°C Zagrzeb
Więcej miast w Europie

Metary wojskowe test
METAR EPBC 220400Z 24001KT 0600 BCFG 06/06 Q1019=
METAR EPCE 220400Z VRB01KT 0150 FG VV001 05/05 Q1018 RMK 047 100 ///=
METAR EPDA 220400Z VRB02KT 0200 FG VV002 06/05 Q1017 RMK 063 093 ///=
METAR EPDE 220400Z VRB02KT 0300 FG NSC 02/01 Q1020 RMK 017 097 0/0=
METAR EPIR 220400Z 16004KT 0500 FG NSC 06/05 Q1018 RMK 056 097 0/0=
METAR EPKS 220400Z 14003KT 4000 MIFG BR NSC 06/06 Q1018 RMK 057 100 0/0=
METAR EPLK 220400Z VRB01KT CAVOK 06/06 Q1019 RMK 061 098 0/0=
METAR EPLY 220400Z VRB02KT CAVOK 07/06 Q1019 RMK 067 093 0/0=
METAR EPMB 220400Z 23004KT 9999 MIFG NSC 09/08 Q1018 RMK 087 098 0/0=
METAR EPMI 220400Z 12003KT 7000 MIFG NSC 04/04 Q1018 RMK 043 099 0/0=
METAR EPMM 220400Z VRB01KT 0400 R26/0325N FG FEW002 04/04 Q1019 RMK 043 096 2/2=
METAR EPOK 220330Z 27004KT CAVOK 11/10 Q1017 RMK 109 093 0/0=
METAR EPPR 220400Z 00000KT 0200 FG BKN030 07/06 Q1018 RMK 070 092 5/5=
METAR EPPW 220400Z 10002KT 6000 MIFG NSC 06/05 Q1018 RMK 057 093 0/0=
METAR EPSN 220400Z AUTO VRB02KT 9999 R29/0650D NCD 08/07 Q1017 RMK 076 097 ///=
METAR EPTM 220400Z 20002KT 3000 BR NSC 03/02 Q1020 RMK 025 094 0/0=


 

Prawa autorskie©2007 SSH SZ RP. Wszelkie prawa zastrzeżone.